Currently 57°F in Riverside (Presidential Park), California, USA
57°F
60°F / 57°F
3 mph NW
0.00"
Tuesday, May 11, 2021 6:03 AM PDT

Riverside (Presidential Park), California Weather Summary
Last 36 Hours

Temperature Winds Hourly Humidity Dewpoint
Time Report Norm Report Norm Max Gusts Precip. Rpt. Norm Rpt. Norm Pressure
1Tue 06:03 AM  57.3°F  57°F  3 mph NW  1 mph  5 mph  0.00"  85%  79%  53°F  50°F  29.91"
Tue 06:00 AM  57.2°F  57°F  3 mph NW  1 mph  6 mph  0.00"  85%  79%  53°F  50°F  29.90"
Tue 05:00 AM  57.4°F  57°F  1 mph W  2 mph  5 mph  0.00"  85%  78%  53°F  50°F  29.88"
Tue 04:00 AM  57.4°F  58°F  1 mph SW  1 mph  6 mph  0.00"  83%  77%  52°F  50°F  29.87"
Tue 03:00 AM  57.0°F  58°F  2 mph SW  2 mph  1 mph  0.00"  82%  76%  51°F  50°F  29.87"
3Tue 02:38 AM  56.7°F  59°F  calm  2 mph  1 mph  ----  81%  75%  51°F  51°F  29.88"
Tue 02:00 AM  57.3°F  59°F  1 mph SE  2 mph  4 mph  0.00"  79%  74%  51°F  51°F  29.88"
Tue 01:00 AM  58.9°F  60°F  1 mph NW  2 mph  6 mph  0.00"  77%  72%  52°F  51°F  29.90"
2Tue 12:03 AM  59.9°F  61°F  2 mph W  2 mph  4 mph  ----  75%  70%  52°F  51°F  29.90"
Tue 12:00 AM  59.8°F  61°F  2 mph NW  2 mph  5 mph  0.00"  75%  70%  52°F  51°F  29.90"
Mon 11:00 PM  61.1°F  62°F  4 mph W  3 mph  7 mph  0.00"  73%  68%  52°F  51°F  29.90"
Mon 10:00 PM  62.3°F  63°F  3 mph SW  3 mph  8 mph  0.00"  71%  65%  52°F  51°F  29.90"
Mon 09:00 PM  63.8°F  65°F  5 mph NW  3 mph  11 mph  0.00"  67%  61%  52°F  51°F  29.89"
Mon 08:00 PM  65.8°F  67°F  8 mph W  5 mph  13 mph  0.00"  64%  57%  53°F  51°F  29.87"
Mon 07:00 PM  67.8°F  70°F  7 mph SW  7 mph  15 mph  0.00"  60%  52%  53°F  50°F  29.85"
Mon 06:00 PM  69.8°F  72°F  9 mph SW  7 mph  14 mph  0.00"  56%  47%  53°F  50°F  29.85"
Mon 05:00 PM  70.5°F  74°F  9 mph W  8 mph  16 mph  0.00"  55%  46%  53°F  50°F  29.85"
Mon 04:00 PM  71.8°F  75°F  8 mph W  8 mph  13 mph  0.00"  51%  44%  52°F  51°F  29.85"
Mon 03:00 PM  71.5°F  75°F  5 mph W  7 mph  13 mph  0.00"  53%  44%  53°F  51°F  29.86"
Mon 02:00 PM  70.1°F  74°F  2 mph S  6 mph  11 mph  0.00"  55%  46%  53°F  51°F  29.87"
Mon 01:00 PM  67.6°F  73°F  2 mph SE  5 mph  10 mph  0.00"  59%  48%  52°F  51°F  29.88"
Mon 12:00 PM  63.8°F  71°F  5 mph W  4 mph  8 mph  0.00"  70%  51%  54°F  51°F  29.90"
Mon 11:00 AM  62.2°F  69°F  1 mph W  4 mph  8 mph  0.00"  76%  56%  54°F  52°F  29.90"
Mon 10:00 AM  60.6°F  66°F  4 mph NW  3 mph  7 mph  0.00"  79%  63%  54°F  52°F  29.90"
Mon 09:00 AM  59.5°F  63°F  5 mph W  2 mph  7 mph  0.00"  83%  69%  54°F  53°F  29.90"
Mon 08:00 AM  59.2°F  60°F  4 mph NW  2 mph  6 mph  0.00"  83%  76%  54°F  52°F  29.89"
Mon 07:00 AM  59.2°F  58°F  3 mph NW  1 mph  6 mph  0.00"  83%  79%  54°F  51°F  29.87"
Mon 06:00 AM  59.4°F  57°F  2 mph W  1 mph  6 mph  0.00"  81%  79%  54°F  50°F  29.85"
Mon 05:00 AM  59.9°F  57°F  2 mph W  1 mph  6 mph  0.00"  80%  78%  53°F  50°F  29.85"
Mon 04:00 AM  60.0°F  58°F  calm  1 mph  4 mph  0.00"  79%  77%  53°F  50°F  29.85"
Mon 03:00 AM  59.9°F  58°F  calm  2 mph  5 mph  0.00"  80%  76%  53°F  50°F  29.85"
Mon 02:00 AM  60.2°F  59°F  3 mph SW  2 mph  8 mph  0.00"  79%  74%  54°F  51°F  29.86"
Mon 01:00 AM  60.2°F  60°F  3 mph NW  2 mph  6 mph  0.00"  79%  72%  53°F  51°F  29.88"
Mon 12:00 AM  60.0°F  61°F  2 mph W  2 mph  8 mph  0.00"  79%  70%  53°F  51°F  29.89"
Sun 11:00 PM  60.2°F  62°F  3 mph NW  2 mph  9 mph  0.00"  78%  68%  53°F  51°F  29.89"
Sun 10:00 PM  62.0°F  63°F  5 mph W  3 mph  7 mph  0.00"  73%  65%  53°F  51°F  29.88"
Sun 09:00 PM  64.1°F  65°F  5 mph W  3 mph  10 mph  0.00"  68%  60%  53°F  51°F  29.85"
Sun 08:00 PM  66.1°F  67°F  6 mph W  5 mph  13 mph  0.00"  64%  56%  53°F  51°F  29.83"
Sun 07:00 PM  70.0°F  70°F  8 mph W  7 mph  15 mph  0.00"  56%  51%  53°F  50°F  29.81"

  1. Current weather data. No green row appears if the current weather data is also the high or low for the current day.
  2. High temperature for the current day.
  3. Low temperature for the current day.

The Riverside (Presidential Park), California weather pages are a service of WeatherCurrents.
Copyright ©2021  WeatherCurrents. All rights reserved. - Submit questions and comments - Privacy Policy

This page automatically refreshes every 10 minutes.